CYSN

St Catharines/Niagara District Airport

St Catharines, , Canada
METAR CYSN 161400Z 26008KT 15SM FEW025 BKN040 OVC082 M04/M07 A2993 RMK SC1SC4AC3 SLP141
Observed Flight Rules
Dec-16 @ 14:00 UTC (38 minutes ago) Visual Flight Rules
Wind Visibility Clouds
260° at 8 knots 15 miles
  • Few at 2,500' AGL
  • Broken at 4,000' AGL
  • Overcast at 8,200' AGL
Temperatures Readings
Current -4°C / 25°F
Dewpoint -7°C / 19°F
Humidity 80%
Altimeter 29.93" Hg
Pressure 1014.1 hPa
Elevation 98
METAR CYSN 161400Z 26008KT 15SM FEW025 BKN040 OVC082 M04/M07 A2993 RMK SC1SC4AC3 SLP141
Observed Flight Rules
Dec-16 @ 14:00 UTC
(38 minutes ago)
VFR
Wind Visibility
260° at 8 knots 15 miles
Clouds
  • Few at 2,500' AGL
  • Broken at 4,000' AGL
  • Overcast at 8,200' AGL
Temperature Dewpoint
-4°C / 25°F -7°C / 19°F
Humidity Altimeter Pressure
80% 29.93" Hg 1014.1 hPa